sensor_id;sensor_type;location;lat;lon;timestamp;P1;durP1;ratioP1;P2;durP2;ratioP2
53389;SDS011;39288;42.970;1.524;2024-01-15T00:00:21;4.40;;;3.37;;
53389;SDS011;39288;42.970;1.524;2024-01-15T00:01:22;5.23;;;2.87;;
53389;SDS011;39288;42.970;1.524;2024-01-15T00:02:22;3.40;;;2.20;;
53389;SDS011;39288;42.970;1.524;2024-01-15T00:03:23;3.60;;;2.13;;
53389;SDS011;39288;42.970;1.524;2024-01-15T00:04:23;2.50;;;1.50;;
53389;SDS011;39288;42.970;1.524;2024-01-15T00:05:23;2.83;;;1.90;;
53389;SDS011;39288;42.970;1.524;2024-01-15T00:06:24;3.27;;;1.87;;
53389;SDS011;39288;42.970;1.524;2024-01-15T00:07:24;3.33;;;1.73;;
53389;SDS011;39288;42.970;1.524;2024-01-15T00:08:25;3.13;;;1.80;;
53389;SDS011;39288;42.970;1.524;2024-01-15T00:09:26;1.55;;;0.85;;
53389;SDS011;39288;42.970;1.524;2024-01-15T00:10:27;1.48;;;1.10;;
53389;SDS011;39288;42.970;1.524;2024-01-15T00:11:28;3.17;;;1.57;;
53389;SDS011;39288;42.970;1.524;2024-01-15T00:12:28;4.67;;;2.83;;
53389;SDS011;39288;42.970;1.524;2024-01-15T00:13:28;6.23;;;2.77;;
53389;SDS011;39288;42.970;1.524;2024-01-15T00:14:29;2.77;;;1.70;;
53389;SDS011;39288;42.970;1.524;2024-01-15T00:15:30;2.70;;;1.30;;
53389;SDS011;39288;42.970;1.524;2024-01-15T00:16:30;1.77;;;1.07;;
53389;SDS011;39288;42.970;1.524;2024-01-15T00:17:30;2.43;;;1.10;;
53389;SDS011;39288;42.970;1.524;2024-01-15T00:18:31;1.20;;;0.90;;
53389;SDS011;39288;42.970;1.524;2024-01-15T00:19:31;2.27;;;0.60;;
53389;SDS011;39288;42.970;1.524;2024-01-15T00:20:32;2.43;;;1.20;;
53389;SDS011;39288;42.970;1.524;2024-01-15T00:21:32;1.53;;;1.07;;
53389;SDS011;39288;42.970;1.524;2024-01-15T00:22:33;3.00;;;1.03;;
53389;SDS011;39288;42.970;1.524;2024-01-15T00:23:35;3.97;;;1.10;;
53389;SDS011;39288;42.970;1.524;2024-01-15T00:24:35;2.40;;;1.07;;
53389;SDS011;39288;42.970;1.524;2024-01-15T00:25:36;4.30;;;3.37;;
53389;SDS011;39288;42.970;1.524;2024-01-15T00:26:36;7.57;;;5.80;;
53389;SDS011;39288;42.970;1.524;2024-01-15T00:27:37;9.93;;;7.23;;
53389;SDS011;39288;42.970;1.524;2024-01-15T00:28:37;5.23;;;3.77;;
53389;SDS011;39288;42.970;1.524;2024-01-15T00:29:38;5.37;;;3.53;;
53389;SDS011;39288;42.970;1.524;2024-01-15T00:30:38;2.47;;;1.63;;
53389;SDS011;39288;42.970;1.524;2024-01-15T00:31:39;4.53;;;2.10;;
53389;SDS011;39288;42.970;1.524;2024-01-15T00:32:39;10.70;;;8.03;;
53389;SDS011;39288;42.970;1.524;2024-01-15T00:33:39;12.90;;;11.20;;
53389;SDS011;39288;42.970;1.524;2024-01-15T00:34:40;4.90;;;3.17;;
53389;SDS011;39288;42.970;1.524;2024-01-15T00:35:41;3.03;;;2.20;;
53389;SDS011;39288;42.970;1.524;2024-01-15T00:36:41;12.83;;;7.87;;
53389;SDS011;39288;42.970;1.524;2024-01-15T00:37:42;15.47;;;11.83;;
53389;SDS011;39288;42.970;1.524;2024-01-15T00:38:43;19.93;;;15.30;;
53389;SDS011;39288;42.970;1.524;2024-01-15T00:40:44;34.00;;;19.38;;
53389;SDS011;39288;42.970;1.524;2024-01-15T00:41:44;39.30;;;22.60;;
53389;SDS011;39288;42.970;1.524;2024-01-15T00:42:45;22.60;;;17.33;;
53389;SDS011;39288;42.970;1.524;2024-01-15T00:43:45;29.00;;;19.53;;
53389;SDS011;39288;42.970;1.524;2024-01-15T00:44:46;21.67;;;16.40;;
53389;SDS011;39288;42.970;1.524;2024-01-15T00:45:46;17.13;;;14.60;;
53389;SDS011;39288;42.970;1.524;2024-01-15T00:46:47;19.33;;;14.17;;
53389;SDS011;39288;42.970;1.524;2024-01-15T00:47:47;20.97;;;16.30;;
53389;SDS011;39288;42.970;1.524;2024-01-15T00:48:48;17.33;;;13.20;;
53389;SDS011;39288;42.970;1.524;2024-01-15T00:49:48;24.33;;;10.70;;
53389;SDS011;39288;42.970;1.524;2024-01-15T00:50:49;11.47;;;10.27;;
53389;SDS011;39288;42.970;1.524;2024-01-15T00:51:49;123.67;;;25.03;;
53389;SDS011;39288;42.970;1.524;2024-01-15T00:52:49;178.93;;;26.70;;
53389;SDS011;39288;42.970;1.524;2024-01-15T00:53:50;343.43;;;38.27;;
53389;SDS011;39288;42.970;1.524;2024-01-15T00:54:50;359.97;;;44.77;;
53389;SDS011;39288;42.970;1.524;2024-01-15T00:55:51;44.33;;;27.90;;
53389;SDS011;39288;42.970;1.524;2024-01-15T00:56:51;192.00;;;31.37;;
53389;SDS011;39288;42.970;1.524;2024-01-15T00:57:51;183.23;;;30.53;;
53389;SDS011;39288;42.970;1.524;2024-01-15T00:58:52;175.13;;;30.97;;
53389;SDS011;39288;42.970;1.524;2024-01-15T00:59:52;26.20;;;20.30;;
53389;SDS011;39288;42.970;1.524;2024-01-15T01:00:52;22.07;;;16.60;;
53389;SDS011;39288;42.970;1.524;2024-01-15T01:01:53;57.70;;;18.83;;
53389;SDS011;39288;42.970;1.524;2024-01-15T01:02:53;275.07;;;35.47;;
53389;SDS011;39288;42.970;1.524;2024-01-15T01:03:54;23.03;;;17.00;;
53389;SDS011;39288;42.970;1.524;2024-01-15T01:04:54;89.60;;;21.37;;
53389;SDS011;39288;42.970;1.524;2024-01-15T01:05:54;38.90;;;19.33;;
53389;SDS011;39288;42.970;1.524;2024-01-15T01:06:55;227.40;;;35.57;;
53389;SDS011;39288;42.970;1.524;2024-01-15T01:07:55;488.27;;;66.87;;
53389;SDS011;39288;42.970;1.524;2024-01-15T01:08:55;91.43;;;35.83;;
53389;SDS011;39288;42.970;1.524;2024-01-15T01:09:56;411.30;;;53.40;;
53389;SDS011;39288;42.970;1.524;2024-01-15T01:10:56;847.23;;;72.83;;
53389;SDS011;39288;42.970;1.524;2024-01-15T01:11:57;693.17;;;67.97;;
53389;SDS011;39288;42.970;1.524;2024-01-15T01:12:57;1091.37;;;96.80;;
53389;SDS011;39288;42.970;1.524;2024-01-15T01:13:58;491.17;;;55.17;;
53389;SDS011;39288;42.970;1.524;2024-01-15T01:14:58;608.93;;;62.47;;
53389;SDS011;39288;42.970;1.524;2024-01-15T01:15:59;438.83;;;52.73;;
53389;SDS011;39288;42.970;1.524;2024-01-15T01:16:59;312.53;;;37.03;;
53389;SDS011;39288;42.970;1.524;2024-01-15T01:17:59;472.87;;;56.20;;
53389;SDS011;39288;42.970;1.524;2024-01-15T01:19:00;143.07;;;29.50;;
53389;SDS011;39288;42.970;1.524;2024-01-15T01:20:00;594.70;;;62.93;;
53389;SDS011;39288;42.970;1.524;2024-01-15T01:21:04;649.55;;;62.92;;
53389;SDS011;39288;42.970;1.524;2024-01-15T01:22:04;305.37;;;43.50;;
53389;SDS011;39288;42.970;1.524;2024-01-15T01:23:05;619.10;;;54.90;;
53389;SDS011;39288;42.970;1.524;2024-01-15T01:24:05;646.13;;;55.93;;
53389;SDS011;39288;42.970;1.524;2024-01-15T01:25:06;186.33;;;30.30;;
53389;SDS011;39288;42.970;1.524;2024-01-15T01:26:07;395.87;;;38.80;;
53389;SDS011;39288;42.970;1.524;2024-01-15T01:27:07;405.00;;;47.87;;
53389;SDS011;39288;42.970;1.524;2024-01-15T01:28:07;228.30;;;30.87;;
53389;SDS011;39288;42.970;1.524;2024-01-15T01:29:08;532.00;;;48.73;;
53389;SDS011;39288;42.970;1.524;2024-01-15T01:30:08;615.37;;;54.77;;
53389;SDS011;39288;42.970;1.524;2024-01-15T01:31:09;358.90;;;35.57;;
53389;SDS011;39288;42.970;1.524;2024-01-15T01:32:09;279.03;;;32.27;;
53389;SDS011;39288;42.970;1.524;2024-01-15T01:33:09;400.50;;;39.57;;
53389;SDS011;39288;42.970;1.524;2024-01-15T01:34:13;497.73;;;40.80;;
53389;SDS011;39288;42.970;1.524;2024-01-15T01:35:15;391.85;;;35.70;;
53389;SDS011;39288;42.970;1.524;2024-01-15T01:36:15;400.83;;;36.37;;
53389;SDS011;39288;42.970;1.524;2024-01-15T01:37:16;405.33;;;35.93;;
53389;SDS011;39288;42.970;1.524;2024-01-15T01:38:16;153.73;;;27.67;;
53389;SDS011;39288;42.970;1.524;2024-01-15T01:39:16;276.70;;;33.43;;
53389;SDS011;39288;42.970;1.524;2024-01-15T01:40:17;414.10;;;42.17;;
53389;SDS011;39288;42.970;1.524;2024-01-15T01:41:17;481.90;;;42.93;;
53389;SDS011;39288;42.970;1.524;2024-01-15T01:42:18;272.03;;;28.23;;
53389;SDS011;39288;42.970;1.524;2024-01-15T01:43:18;519.70;;;42.67;;
53389;SDS011;39288;42.970;1.524;2024-01-15T01:44:19;114.27;;;23.80;;
53389;SDS011;39288;42.970;1.524;2024-01-15T01:45:19;303.30;;;34.80;;
53389;SDS011;39288;42.970;1.524;2024-01-15T01:46:19;451.40;;;42.10;;
53389;SDS011;39288;42.970;1.524;2024-01-15T01:47:20;376.33;;;36.67;;
53389;SDS011;39288;42.970;1.524;2024-01-15T01:48:20;326.00;;;37.80;;
53389;SDS011;39288;42.970;1.524;2024-01-15T01:49:22;118.80;;;23.53;;
53389;SDS011;39288;42.970;1.524;2024-01-15T01:50:23;43.78;;;17.63;;
53389;SDS011;39288;42.970;1.524;2024-01-15T01:51:24;25.43;;;17.77;;
53389;SDS011;39288;42.970;1.524;2024-01-15T01:52:25;40.03;;;17.70;;
53389;SDS011;39288;42.970;1.524;2024-01-15T01:53:26;108.18;;;22.92;;
53389;SDS011;39288;42.970;1.524;2024-01-15T01:54:28;236.73;;;30.35;;
53389;SDS011;39288;42.970;1.524;2024-01-15T01:55:31;262.10;;;32.00;;
53389;SDS011;39288;42.970;1.524;2024-01-15T01:56:33;245.15;;;30.52;;
53389;SDS011;39288;42.970;1.524;2024-01-15T01:57:34;77.43;;;20.67;;
53389;SDS011;39288;42.970;1.524;2024-01-15T01:58:35;83.72;;;21.13;;
53389;SDS011;39288;42.970;1.524;2024-01-15T01:59:36;150.35;;;23.20;;
53389;SDS011;39288;42.970;1.524;2024-01-15T02:00:37;193.47;;;26.20;;
53389;SDS011;39288;42.970;1.524;2024-01-15T02:01:38;276.58;;;29.83;;
53389;SDS011;39288;42.970;1.524;2024-01-15T02:02:38;114.47;;;21.97;;
53389;SDS011;39288;42.970;1.524;2024-01-15T02:03:39;131.50;;;24.00;;
53389;SDS011;39288;42.970;1.524;2024-01-15T02:04:40;189.68;;;34.55;;
53389;SDS011;39288;42.970;1.524;2024-01-15T02:05:40;184.90;;;32.83;;
53389;SDS011;39288;42.970;1.524;2024-01-15T02:06:44;98.80;;;24.70;;
53389;SDS011;39288;42.970;1.524;2024-01-15T02:07:45;239.20;;;22.13;;
53389;SDS011;39288;42.970;1.524;2024-01-15T02:08:45;298.17;;;37.13;;
53389;SDS011;39288;42.970;1.524;2024-01-15T02:09:45;189.60;;;27.57;;
53389;SDS011;39288;42.970;1.524;2024-01-15T02:10:46;164.63;;;24.90;;
53389;SDS011;39288;42.970;1.524;2024-01-15T02:11:46;173.63;;;24.73;;
53389;SDS011;39288;42.970;1.524;2024-01-15T02:12:47;61.80;;;18.15;;
53389;SDS011;39288;42.970;1.524;2024-01-15T02:13:48;20.13;;;15.67;;
53389;SDS011;39288;42.970;1.524;2024-01-15T02:14:49;228.00;;;27.67;;
53389;SDS011;39288;42.970;1.524;2024-01-15T02:15:49;104.30;;;20.23;;
53389;SDS011;39288;42.970;1.524;2024-01-15T02:16:49;18.23;;;15.27;;
53389;SDS011;39288;42.970;1.524;2024-01-15T02:17:56;17.80;;;15.00;;
53389;SDS011;39288;42.970;1.524;2024-01-15T02:18:58;183.90;;;26.92;;
53389;SDS011;39288;42.970;1.524;2024-01-15T02:19:58;257.57;;;26.47;;
53389;SDS011;39288;42.970;1.524;2024-01-15T02:20:59;185.07;;;23.53;;
53389;SDS011;39288;42.970;1.524;2024-01-15T02:21:59;28.70;;;16.00;;
53389;SDS011;39288;42.970;1.524;2024-01-15T02:23:09;67.23;;;20.47;;
53389;SDS011;39288;42.970;1.524;2024-01-15T02:24:13;63.10;;;18.80;;
53389;SDS011;39288;42.970;1.524;2024-01-15T02:25:14;144.07;;;20.30;;
53389;SDS011;39288;42.970;1.524;2024-01-15T02:26:14;49.57;;;18.53;;
53389;SDS011;39288;42.970;1.524;2024-01-15T02:27:15;133.90;;;23.37;;
53389;SDS011;39288;42.970;1.524;2024-01-15T02:28:16;143.97;;;19.17;;
53389;SDS011;39288;42.970;1.524;2024-01-15T02:29:17;72.90;;;17.65;;
53389;SDS011;39288;42.970;1.524;2024-01-15T02:30:18;135.50;;;21.73;;
53389;SDS011;39288;42.970;1.524;2024-01-15T02:31:18;276.00;;;29.47;;
53389;SDS011;39288;42.970;1.524;2024-01-15T02:32:18;270.17;;;30.83;;
53389;SDS011;39288;42.970;1.524;2024-01-15T02:33:19;190.70;;;24.70;;
53389;SDS011;39288;42.970;1.524;2024-01-15T02:34:20;86.03;;;20.10;;
53389;SDS011;39288;42.970;1.524;2024-01-15T02:35:21;56.33;;;18.50;;
53389;SDS011;39288;42.970;1.524;2024-01-15T02:36:21;77.23;;;17.20;;
53389;SDS011;39288;42.970;1.524;2024-01-15T02:37:21;211.10;;;28.77;;
53389;SDS011;39288;42.970;1.524;2024-01-15T02:38:22;210.80;;;27.83;;
53389;SDS011;39288;42.970;1.524;2024-01-15T02:39:22;86.53;;;18.10;;
53389;SDS011;39288;42.970;1.524;2024-01-15T02:40:23;57.60;;;15.73;;
53389;SDS011;39288;42.970;1.524;2024-01-15T02:41:23;62.43;;;18.63;;
53389;SDS011;39288;42.970;1.524;2024-01-15T02:42:23;124.43;;;25.30;;
53389;SDS011;39288;42.970;1.524;2024-01-15T02:43:26;116.88;;;17.38;;
53389;SDS011;39288;42.970;1.524;2024-01-15T02:44:26;131.77;;;20.37;;
53389;SDS011;39288;42.970;1.524;2024-01-15T02:45:27;71.93;;;18.17;;
53389;SDS011;39288;42.970;1.524;2024-01-15T02:46:27;86.37;;;22.47;;
53389;SDS011;39288;42.970;1.524;2024-01-15T02:47:28;78.83;;;20.17;;
53389;SDS011;39288;42.970;1.524;2024-01-15T02:48:28;113.90;;;25.00;;
53389;SDS011;39288;42.970;1.524;2024-01-15T02:49:29;57.60;;;16.90;;
53389;SDS011;39288;42.970;1.524;2024-01-15T02:50:29;152.80;;;19.37;;
53389;SDS011;39288;42.970;1.524;2024-01-15T02:51:29;253.80;;;24.23;;
53389;SDS011;39288;42.970;1.524;2024-01-15T02:52:30;120.57;;;19.10;;
53389;SDS011;39288;42.970;1.524;2024-01-15T02:53:30;617.97;;;51.50;;
53389;SDS011;39288;42.970;1.524;2024-01-15T02:54:31;368.80;;;33.03;;
53389;SDS011;39288;42.970;1.524;2024-01-15T02:55:31;81.50;;;19.20;;
53389;SDS011;39288;42.970;1.524;2024-01-15T02:56:31;66.93;;;16.13;;
53389;SDS011;39288;42.970;1.524;2024-01-15T02:57:32;476.97;;;35.63;;
53389;SDS011;39288;42.970;1.524;2024-01-15T02:58:32;355.17;;;28.37;;
53389;SDS011;39288;42.970;1.524;2024-01-15T02:59:32;117.07;;;17.10;;
53389;SDS011;39288;42.970;1.524;2024-01-15T03:00:33;108.03;;;19.83;;
53389;SDS011;39288;42.970;1.524;2024-01-15T03:01:33;15.37;;;12.40;;
53389;SDS011;39288;42.970;1.524;2024-01-15T03:02:37;470.97;;;41.03;;
53389;SDS011;39288;42.970;1.524;2024-01-15T03:03:43;315.92;;;29.95;;
53389;SDS011;39288;42.970;1.524;2024-01-15T03:04:44;216.27;;;25.43;;
53389;SDS011;39288;42.970;1.524;2024-01-15T03:05:44;168.60;;;21.65;;
53389;SDS011;39288;42.970;1.524;2024-01-15T03:06:45;313.20;;;31.50;;
53389;SDS011;39288;42.970;1.524;2024-01-15T03:07:45;540.23;;;36.13;;
53389;SDS011;39288;42.970;1.524;2024-01-15T03:08:45;365.93;;;33.27;;
53389;SDS011;39288;42.970;1.524;2024-01-15T03:09:46;163.70;;;20.33;;
53389;SDS011;39288;42.970;1.524;2024-01-15T03:10:46;114.83;;;17.30;;
53389;SDS011;39288;42.970;1.524;2024-01-15T03:11:47;277.07;;;24.70;;
53389;SDS011;39288;42.970;1.524;2024-01-15T03:12:48;165.05;;;21.73;;
53389;SDS011;39288;42.970;1.524;2024-01-15T03:13:49;141.27;;;21.43;;
53389;SDS011;39288;42.970;1.524;2024-01-15T03:14:49;308.40;;;30.57;;
53389;SDS011;39288;42.970;1.524;2024-01-15T03:15:49;77.70;;;18.93;;
53389;SDS011;39288;42.970;1.524;2024-01-15T03:16:50;230.20;;;28.23;;
53389;SDS011;39288;42.970;1.524;2024-01-15T03:17:50;79.07;;;15.53;;
53389;SDS011;39288;42.970;1.524;2024-01-15T03:18:50;45.73;;;13.20;;
53389;SDS011;39288;42.970;1.524;2024-01-15T03:19:51;80.70;;;15.07;;
53389;SDS011;39288;42.970;1.524;2024-01-15T03:20:51;143.17;;;20.23;;
53389;SDS011;39288;42.970;1.524;2024-01-15T03:21:51;85.40;;;19.03;;
53389;SDS011;39288;42.970;1.524;2024-01-15T03:22:52;22.70;;;12.43;;
53389;SDS011;39288;42.970;1.524;2024-01-15T03:23:52;135.83;;;19.63;;
53389;SDS011;39288;42.970;1.524;2024-01-15T03:24:53;130.90;;;19.03;;
53389;SDS011;39288;42.970;1.524;2024-01-15T03:25:53;187.23;;;23.80;;
53389;SDS011;39288;42.970;1.524;2024-01-15T03:26:53;93.73;;;17.07;;
53389;SDS011;39288;42.970;1.524;2024-01-15T03:27:54;237.13;;;26.17;;
53389;SDS011;39288;42.970;1.524;2024-01-15T03:28:54;147.07;;;19.60;;
53389;SDS011;39288;42.970;1.524;2024-01-15T03:29:54;33.33;;;14.43;;
53389;SDS011;39288;42.970;1.524;2024-01-15T03:30:55;504.10;;;31.37;;
53389;SDS011;39288;42.970;1.524;2024-01-15T03:31:55;273.97;;;26.13;;
53389;SDS011;39288;42.970;1.524;2024-01-15T03:32:56;980.57;;;89.80;;
53389;SDS011;39288;42.970;1.524;2024-01-15T03:33:56;249.07;;;24.57;;
53389;SDS011;39288;42.970;1.524;2024-01-15T03:34:56;408.37;;;38.23;;
53389;SDS011;39288;42.970;1.524;2024-01-15T03:35:57;110.77;;;18.43;;
53389;SDS011;39288;42.970;1.524;2024-01-15T03:36:58;299.40;;;32.33;;
53389;SDS011;39288;42.970;1.524;2024-01-15T03:37:59;26.67;;;11.77;;
53389;SDS011;39288;42.970;1.524;2024-01-15T03:38:59;26.60;;;12.23;;
53389;SDS011;39288;42.970;1.524;2024-01-15T03:40:00;40.80;;;13.57;;
53389;SDS011;39288;42.970;1.524;2024-01-15T03:41:00;57.97;;;12.97;;
53389;SDS011;39288;42.970;1.524;2024-01-15T03:42:00;93.03;;;16.13;;
53389;SDS011;39288;42.970;1.524;2024-01-15T03:43:01;16.17;;;10.93;;
53389;SDS011;39288;42.970;1.524;2024-01-15T03:44:01;77.60;;;15.70;;
53389;SDS011;39288;42.970;1.524;2024-01-15T03:45:01;72.20;;;16.03;;
53389;SDS011;39288;42.970;1.524;2024-01-15T03:46:03;63.28;;;14.27;;
53389;SDS011;39288;42.970;1.524;2024-01-15T03:47:04;105.38;;;14.35;;
53389;SDS011;39288;42.970;1.524;2024-01-15T03:48:04;290.97;;;24.23;;
53389;SDS011;39288;42.970;1.524;2024-01-15T03:49:05;68.13;;;15.17;;
53389;SDS011;39288;42.970;1.524;2024-01-15T03:50:06;447.17;;;41.37;;
53389;SDS011;39288;42.970;1.524;2024-01-15T03:51:06;236.67;;;23.57;;
53389;SDS011;39288;42.970;1.524;2024-01-15T03:52:06;11.80;;;9.97;;
53389;SDS011;39288;42.970;1.524;2024-01-15T03:53:07;66.37;;;14.37;;
53389;SDS011;39288;42.970;1.524;2024-01-15T03:54:07;84.37;;;15.00;;
53389;SDS011;39288;42.970;1.524;2024-01-15T03:55:07;147.10;;;20.90;;
53389;SDS011;39288;42.970;1.524;2024-01-15T03:56:08;248.70;;;24.83;;
53389;SDS011;39288;42.970;1.524;2024-01-15T03:57:08;102.67;;;15.37;;
53389;SDS011;39288;42.970;1.524;2024-01-15T03:58:09;123.67;;;18.30;;
53389;SDS011;39288;42.970;1.524;2024-01-15T03:59:09;50.33;;;12.77;;
53389;SDS011;39288;42.970;1.524;2024-01-15T04:00:10;30.00;;;10.93;;
53389;SDS011;39288;42.970;1.524;2024-01-15T04:01:10;30.45;;;11.70;;
53389;SDS011;39288;42.970;1.524;2024-01-15T04:02:11;61.57;;;16.03;;
53389;SDS011;39288;42.970;1.524;2024-01-15T04:03:11;447.17;;;38.80;;
53389;SDS011;39288;42.970;1.524;2024-01-15T04:04:12;832.67;;;78.70;;
53389;SDS011;39288;42.970;1.524;2024-01-15T04:05:12;52.00;;;14.43;;
53389;SDS011;39288;42.970;1.524;2024-01-15T04:06:12;470.03;;;49.27;;
53389;SDS011;39288;42.970;1.524;2024-01-15T04:07:13;257.50;;;29.80;;
53389;SDS011;39288;42.970;1.524;2024-01-15T04:08:13;101.90;;;16.53;;
53389;SDS011;39288;42.970;1.524;2024-01-15T04:09:14;141.63;;;16.93;;
53389;SDS011;39288;42.970;1.524;2024-01-15T04:10:14;40.03;;;13.27;;
53389;SDS011;39288;42.970;1.524;2024-01-15T04:11:14;30.23;;;11.67;;
53389;SDS011;39288;42.970;1.524;2024-01-15T04:12:15;286.30;;;28.63;;
53389;SDS011;39288;42.970;1.524;2024-01-15T04:13:15;191.90;;;22.63;;
53389;SDS011;39288;42.970;1.524;2024-01-15T04:14:16;152.43;;;20.77;;
53389;SDS011;39288;42.970;1.524;2024-01-15T04:15:16;188.20;;;20.63;;
53389;SDS011;39288;42.970;1.524;2024-01-15T04:16:16;119.07;;;17.20;;
53389;SDS011;39288;42.970;1.524;2024-01-15T04:17:17;67.73;;;15.67;;
53389;SDS011;39288;42.970;1.524;2024-01-15T04:18:17;132.37;;;20.97;;
53389;SDS011;39288;42.970;1.524;2024-01-15T04:19:18;78.33;;;15.40;;
53389;SDS011;39288;42.970;1.524;2024-01-15T04:20:18;103.03;;;17.10;;
53389;SDS011;39288;42.970;1.524;2024-01-15T04:21:18;132.00;;;19.10;;
53389;SDS011;39288;42.970;1.524;2024-01-15T04:22:19;78.37;;;14.97;;
53389;SDS011;39288;42.970;1.524;2024-01-15T04:23:19;124.33;;;17.27;;
53389;SDS011;39288;42.970;1.524;2024-01-15T04:24:20;89.07;;;16.33;;
53389;SDS011;39288;42.970;1.524;2024-01-15T04:25:20;73.63;;;16.23;;
53389;SDS011;39288;42.970;1.524;2024-01-15T04:26:20;12.60;;;10.47;;
53389;SDS011;39288;42.970;1.524;2024-01-15T04:27:21;14.77;;;11.43;;
53389;SDS011;39288;42.970;1.524;2024-01-15T04:28:21;24.70;;;10.97;;
53389;SDS011;39288;42.970;1.524;2024-01-15T04:29:21;58.90;;;14.10;;
53389;SDS011;39288;42.970;1.524;2024-01-15T04:30:22;21.13;;;11.27;;
53389;SDS011;39288;42.970;1.524;2024-01-15T04:31:23;36.43;;;12.00;;
53389;SDS011;39288;42.970;1.524;2024-01-15T04:32:25;162.10;;;21.05;;
53389;SDS011;39288;42.970;1.524;2024-01-15T04:33:25;46.20;;;14.23;;
53389;SDS011;39288;42.970;1.524;2024-01-15T04:34:25;138.23;;;18.10;;
53389;SDS011;39288;42.970;1.524;2024-01-15T04:35:26;390.20;;;36.90;;
53389;SDS011;39288;42.970;1.524;2024-01-15T04:36:26;265.77;;;26.17;;
53389;SDS011;39288;42.970;1.524;2024-01-15T04:37:26;160.53;;;17.50;;
53389;SDS011;39288;42.970;1.524;2024-01-15T04:38:27;201.77;;;27.97;;
53389;SDS011;39288;42.970;1.524;2024-01-15T04:39:28;234.50;;;24.20;;
53389;SDS011;39288;42.970;1.524;2024-01-15T04:40:29;169.52;;;22.83;;
53389;SDS011;39288;42.970;1.524;2024-01-15T04:41:29;370.93;;;33.07;;
53389;SDS011;39288;42.970;1.524;2024-01-15T04:42:30;494.37;;;39.23;;
53389;SDS011;39288;42.970;1.524;2024-01-15T04:43:30;621.50;;;54.43;;
53389;SDS011;39288;42.970;1.524;2024-01-15T04:44:30;675.17;;;55.50;;
53389;SDS011;39288;42.970;1.524;2024-01-15T04:45:31;543.60;;;46.87;;
53389;SDS011;39288;42.970;1.524;2024-01-15T04:46:31;598.83;;;50.03;;
53389;SDS011;39288;42.970;1.524;2024-01-15T04:47:31;382.23;;;36.60;;
53389;SDS011;39288;42.970;1.524;2024-01-15T04:48:32;84.60;;;16.23;;
53389;SDS011;39288;42.970;1.524;2024-01-15T04:49:33;38.37;;;15.43;;
53389;SDS011;39288;42.970;1.524;2024-01-15T04:50:33;201.73;;;23.67;;
53389;SDS011;39288;42.970;1.524;2024-01-15T04:51:34;286.50;;;31.43;;
53389;SDS011;39288;42.970;1.524;2024-01-15T04:52:34;19.57;;;10.53;;
53389;SDS011;39288;42.970;1.524;2024-01-15T04:53:35;13.30;;;10.33;;
53389;SDS011;39288;42.970;1.524;2024-01-15T04:54:36;12.17;;;9.60;;
53389;SDS011;39288;42.970;1.524;2024-01-15T04:55:36;13.10;;;9.80;;
53389;SDS011;39288;42.970;1.524;2024-01-15T04:56:37;12.00;;;10.37;;
53389;SDS011;39288;42.970;1.524;2024-01-15T04:57:37;12.60;;;10.67;;
53389;SDS011;39288;42.970;1.524;2024-01-15T04:58:38;13.23;;;9.90;;
53389;SDS011;39288;42.970;1.524;2024-01-15T04:59:38;13.13;;;9.63;;
53389;SDS011;39288;42.970;1.524;2024-01-15T05:00:39;11.43;;;8.52;;
53389;SDS011;39288;42.970;1.524;2024-01-15T05:01:40;10.87;;;9.70;;
53389;SDS011;39288;42.970;1.524;2024-01-15T05:02:41;63.30;;;12.00;;
53389;SDS011;39288;42.970;1.524;2024-01-15T05:03:41;308.27;;;30.83;;
53389;SDS011;39288;42.970;1.524;2024-01-15T05:04:41;376.03;;;31.57;;
53389;SDS011;39288;42.970;1.524;2024-01-15T05:05:42;237.33;;;30.07;;
53389;SDS011;39288;42.970;1.524;2024-01-15T05:06:42;459.57;;;38.87;;
53389;SDS011;39288;42.970;1.524;2024-01-15T05:07:43;399.17;;;42.20;;
53389;SDS011;39288;42.970;1.524;2024-01-15T05:08:43;586.70;;;58.43;;
53389;SDS011;39288;42.970;1.524;2024-01-15T05:09:43;436.20;;;42.70;;
53389;SDS011;39288;42.970;1.524;2024-01-15T05:10:44;407.47;;;39.30;;
53389;SDS011;39288;42.970;1.524;2024-01-15T05:11:45;799.17;;;78.78;;
53389;SDS011;39288;42.970;1.524;2024-01-15T05:12:45;872.80;;;75.07;;
53389;SDS011;39288;42.970;1.524;2024-01-15T05:13:45;340.13;;;30.63;;
53389;SDS011;39288;42.970;1.524;2024-01-15T05:14:46;419.87;;;41.07;;
53389;SDS011;39288;42.970;1.524;2024-01-15T05:15:46;138.57;;;16.30;;
53389;SDS011;39288;42.970;1.524;2024-01-15T05:16:48;284.80;;;17.83;;
53389;SDS011;39288;42.970;1.524;2024-01-15T05:17:49;447.40;;;41.97;;
53389;SDS011;39288;42.970;1.524;2024-01-15T05:18:49;305.43;;;27.63;;
53389;SDS011;39288;42.970;1.524;2024-01-15T05:19:50;481.27;;;31.63;;
53389;SDS011;39288;42.970;1.524;2024-01-15T05:20:50;656.47;;;53.80;;
53389;SDS011;39288;42.970;1.524;2024-01-15T05:21:52;736.58;;;64.63;;
53389;SDS011;39288;42.970;1.524;2024-01-15T05:22:52;669.00;;;51.90;;
53389;SDS011;39288;42.970;1.524;2024-01-15T05:23:53;626.23;;;57.27;;
53389;SDS011;39288;42.970;1.524;2024-01-15T05:24:53;833.70;;;72.50;;
53389;SDS011;39288;42.970;1.524;2024-01-15T05:25:53;832.20;;;75.80;;
53389;SDS011;39288;42.970;1.524;2024-01-15T05:26:54;683.77;;;52.00;;
53389;SDS011;39288;42.970;1.524;2024-01-15T05:27:54;546.40;;;43.40;;
53389;SDS011;39288;42.970;1.524;2024-01-15T05:28:54;582.13;;;46.33;;
53389;SDS011;39288;42.970;1.524;2024-01-15T05:29:55;560.13;;;46.17;;
53389;SDS011;39288;42.970;1.524;2024-01-15T05:30:55;695.47;;;46.63;;
53389;SDS011;39288;42.970;1.524;2024-01-15T05:31:56;616.33;;;42.87;;
53389;SDS011;39288;42.970;1.524;2024-01-15T05:32:56;573.23;;;42.77;;
53389;SDS011;39288;42.970;1.524;2024-01-15T05:33:57;487.25;;;36.47;;
53389;SDS011;39288;42.970;1.524;2024-01-15T05:34:58;420.80;;;26.30;;
53389;SDS011;39288;42.970;1.524;2024-01-15T05:35:58;532.77;;;47.67;;
53389;SDS011;39288;42.970;1.524;2024-01-15T05:36:59;511.47;;;38.63;;
53389;SDS011;39288;42.970;1.524;2024-01-15T05:38:00;410.98;;;36.88;;
53389;SDS011;39288;42.970;1.524;2024-01-15T05:39:00;402.77;;;32.17;;
53389;SDS011;39288;42.970;1.524;2024-01-15T05:40:01;183.20;;;20.73;;
53389;SDS011;39288;42.970;1.524;2024-01-15T05:41:01;344.20;;;27.50;;
53389;SDS011;39288;42.970;1.524;2024-01-15T05:42:02;253.93;;;23.40;;
53389;SDS011;39288;42.970;1.524;2024-01-15T05:43:03;269.50;;;24.33;;
53389;SDS011;39288;42.970;1.524;2024-01-15T05:44:03;312.93;;;29.53;;
53389;SDS011;39288;42.970;1.524;2024-01-15T05:45:04;193.97;;;23.67;;
53389;SDS011;39288;42.970;1.524;2024-01-15T05:46:05;187.80;;;19.80;;
53389;SDS011;39288;42.970;1.524;2024-01-15T05:47:05;168.83;;;19.70;;
53389;SDS011;39288;42.970;1.524;2024-01-15T05:48:05;108.70;;;15.50;;
53389;SDS011;39288;42.970;1.524;2024-01-15T05:49:06;77.13;;;14.83;;
53389;SDS011;39288;42.970;1.524;2024-01-15T05:50:06;59.27;;;14.47;;
53389;SDS011;39288;42.970;1.524;2024-01-15T05:51:07;136.00;;;16.83;;
53389;SDS011;39288;42.970;1.524;2024-01-15T05:52:07;14.30;;;10.43;;
53389;SDS011;39288;42.970;1.524;2024-01-15T05:53:08;85.70;;;15.33;;